sensor_id;sensor_type;location;lat;lon;timestamp;temperature;humidity
47779;DHT22;33538;48.432;11.350;2022-12-07T00:01:49;3.60;99.90
47779;DHT22;33538;48.432;11.350;2022-12-07T00:04:17;3.60;99.90
47779;DHT22;33538;48.432;11.350;2022-12-07T00:06:46;3.60;99.90
47779;DHT22;33538;48.432;11.350;2022-12-07T00:09:16;3.60;99.90
47779;DHT22;33538;48.432;11.350;2022-12-07T00:11:44;3.60;99.90
47779;DHT22;33538;48.432;11.350;2022-12-07T00:14:13;3.60;99.90
47779;DHT22;33538;48.432;11.350;2022-12-07T00:16:41;3.60;99.90
47779;DHT22;33538;48.432;11.350;2022-12-07T00:19:09;3.60;99.90
47779;DHT22;33538;48.432;11.350;2022-12-07T00:21:37;3.60;99.90
47779;DHT22;33538;48.432;11.350;2022-12-07T00:24:05;3.60;99.90
47779;DHT22;33538;48.432;11.350;2022-12-07T00:26:35;3.60;99.90
47779;DHT22;33538;48.432;11.350;2022-12-07T00:29:04;3.60;99.90
47779;DHT22;33538;48.432;11.350;2022-12-07T00:31:32;3.60;99.90
47779;DHT22;33538;48.432;11.350;2022-12-07T00:34:00;3.60;99.90
47779;DHT22;33538;48.432;11.350;2022-12-07T00:36:28;3.60;99.90
47779;DHT22;33538;48.432;11.350;2022-12-07T00:38:57;3.60;99.90
47779;DHT22;33538;48.432;11.350;2022-12-07T00:41:26;3.60;99.90
47779;DHT22;33538;48.432;11.350;2022-12-07T00:43:54;3.60;99.90
47779;DHT22;33538;48.432;11.350;2022-12-07T00:46:22;3.60;99.90
47779;DHT22;33538;48.432;11.350;2022-12-07T00:48:50;3.60;99.90
47779;DHT22;33538;48.432;11.350;2022-12-07T00:51:18;3.60;99.90
47779;DHT22;33538;48.432;11.350;2022-12-07T00:53:45;3.60;99.90
47779;DHT22;33538;48.432;11.350;2022-12-07T00:56:13;3.60;99.90
47779;DHT22;33538;48.432;11.350;2022-12-07T00:58:40;3.60;99.90
47779;DHT22;33538;48.432;11.350;2022-12-07T01:01:09;3.60;99.90
47779;DHT22;33538;48.432;11.350;2022-12-07T01:03:38;3.60;99.90
47779;DHT22;33538;48.432;11.350;2022-12-07T01:06:05;3.50;99.90
47779;DHT22;33538;48.432;11.350;2022-12-07T01:08:33;3.50;99.90
47779;DHT22;33538;48.432;11.350;2022-12-07T01:11:02;3.50;99.90
47779;DHT22;33538;48.432;11.350;2022-12-07T01:13:30;3.60;99.90
47779;DHT22;33538;48.432;11.350;2022-12-07T01:15:59;3.60;99.90
47779;DHT22;33538;48.432;11.350;2022-12-07T01:18:28;3.50;99.90
47779;DHT22;33538;48.432;11.350;2022-12-07T01:21:00;3.60;99.90
47779;DHT22;33538;48.432;11.350;2022-12-07T01:23:27;3.60;99.90
47779;DHT22;33538;48.432;11.350;2022-12-07T01:25:55;3.50;99.90
47779;DHT22;33538;48.432;11.350;2022-12-07T01:28:22;3.50;99.90
47779;DHT22;33538;48.432;11.350;2022-12-07T01:30:56;3.50;99.90
47779;DHT22;33538;48.432;11.350;2022-12-07T01:33:23;3.50;99.90
47779;DHT22;33538;48.432;11.350;2022-12-07T01:35:51;3.50;99.90
47779;DHT22;33538;48.432;11.350;2022-12-07T01:38:17;3.50;99.90
47779;DHT22;33538;48.432;11.350;2022-12-07T01:40:44;3.50;99.90
47779;DHT22;33538;48.432;11.350;2022-12-07T01:43:16;3.50;99.90
47779;DHT22;33538;48.432;11.350;2022-12-07T01:45:43;3.50;99.90
47779;DHT22;33538;48.432;11.350;2022-12-07T01:48:13;3.50;99.90
47779;DHT22;33538;48.432;11.350;2022-12-07T01:50:42;3.50;99.90
47779;DHT22;33538;48.432;11.350;2022-12-07T01:53:12;3.50;99.90
47779;DHT22;33538;48.432;11.350;2022-12-07T01:55:42;3.50;99.90
47779;DHT22;33538;48.432;11.350;2022-12-07T01:58:11;3.50;99.90
47779;DHT22;33538;48.432;11.350;2022-12-07T02:00:38;3.50;99.90
47779;DHT22;33538;48.432;11.350;2022-12-07T02:03:09;3.50;99.90
47779;DHT22;33538;48.432;11.350;2022-12-07T02:05:38;3.60;99.90
47779;DHT22;33538;48.432;11.350;2022-12-07T02:08:07;3.50;99.90
47779;DHT22;33538;48.432;11.350;2022-12-07T02:10:35;3.50;99.90
47779;DHT22;33538;48.432;11.350;2022-12-07T02:13:05;3.50;99.90
47779;DHT22;33538;48.432;11.350;2022-12-07T02:15:53;3.50;99.90
47779;DHT22;33538;48.432;11.350;2022-12-07T02:18:37;3.60;99.90
47779;DHT22;33538;48.432;11.350;2022-12-07T02:21:10;3.60;99.90
47779;DHT22;33538;48.432;11.350;2022-12-07T02:23:53;3.50;99.90
47779;DHT22;33538;48.432;11.350;2022-12-07T02:27:02;3.60;99.90
47779;DHT22;33538;48.432;11.350;2022-12-07T02:29:37;3.50;99.90
47779;DHT22;33538;48.432;11.350;2022-12-07T02:32:10;3.50;99.90
47779;DHT22;33538;48.432;11.350;2022-12-07T02:34:44;3.60;99.90
47779;DHT22;33538;48.432;11.350;2022-12-07T02:37:21;3.60;99.90
47779;DHT22;33538;48.432;11.350;2022-12-07T02:39:55;3.60;99.90
47779;DHT22;33538;48.432;11.350;2022-12-07T02:42:30;3.60;99.90
47779;DHT22;33538;48.432;11.350;2022-12-07T02:44:59;3.60;99.90
47779;DHT22;33538;48.432;11.350;2022-12-07T02:47:29;3.60;99.90
47779;DHT22;33538;48.432;11.350;2022-12-07T02:49:57;3.60;99.90
47779;DHT22;33538;48.432;11.350;2022-12-07T02:52:25;3.60;99.90
47779;DHT22;33538;48.432;11.350;2022-12-07T02:54:51;3.50;99.90
47779;DHT22;33538;48.432;11.350;2022-12-07T02:57:33;3.50;99.90
47779;DHT22;33538;48.432;11.350;2022-12-07T03:00:05;3.50;99.90
47779;DHT22;33538;48.432;11.350;2022-12-07T03:02:39;3.50;99.90
47779;DHT22;33538;48.432;11.350;2022-12-07T03:05:15;3.50;99.90
47779;DHT22;33538;48.432;11.350;2022-12-07T03:07:53;3.50;99.90
47779;DHT22;33538;48.432;11.350;2022-12-07T03:10:27;3.50;99.90
47779;DHT22;33538;48.432;11.350;2022-12-07T03:13:03;3.50;99.90
47779;DHT22;33538;48.432;11.350;2022-12-07T03:15:38;3.50;99.90
47779;DHT22;33538;48.432;11.350;2022-12-07T03:18:07;3.50;99.90
47779;DHT22;33538;48.432;11.350;2022-12-07T03:20:37;3.40;99.90
47779;DHT22;33538;48.432;11.350;2022-12-07T03:23:07;3.50;99.90
47779;DHT22;33538;48.432;11.350;2022-12-07T03:25:35;3.40;99.90
47779;DHT22;33538;48.432;11.350;2022-12-07T03:28:06;3.50;99.90
47779;DHT22;33538;48.432;11.350;2022-12-07T03:30:38;3.50;99.90
47779;DHT22;33538;48.432;11.350;2022-12-07T03:33:09;3.40;99.90
47779;DHT22;33538;48.432;11.350;2022-12-07T03:35:40;3.40;99.90
47779;DHT22;33538;48.432;11.350;2022-12-07T03:38:15;3.40;99.90
47779;DHT22;33538;48.432;11.350;2022-12-07T03:40:48;3.40;99.90
47779;DHT22;33538;48.432;11.350;2022-12-07T03:43:18;3.40;99.90
47779;DHT22;33538;48.432;11.350;2022-12-07T03:45:58;3.40;99.90
47779;DHT22;33538;48.432;11.350;2022-12-07T03:48:31;3.40;99.90
47779;DHT22;33538;48.432;11.350;2022-12-07T03:51:04;3.40;99.90
47779;DHT22;33538;48.432;11.350;2022-12-07T03:53:36;3.40;99.90
47779;DHT22;33538;48.432;11.350;2022-12-07T03:56:07;3.40;99.90
47779;DHT22;33538;48.432;11.350;2022-12-07T03:58:35;3.40;99.90
47779;DHT22;33538;48.432;11.350;2022-12-07T04:01:03;3.40;99.90
47779;DHT22;33538;48.432;11.350;2022-12-07T04:03:30;3.40;99.90
47779;DHT22;33538;48.432;11.350;2022-12-07T04:05:57;3.40;99.90
47779;DHT22;33538;48.432;11.350;2022-12-07T04:08:24;3.40;99.90
47779;DHT22;33538;48.432;11.350;2022-12-07T04:10:51;3.40;99.90
47779;DHT22;33538;48.432;11.350;2022-12-07T04:13:18;3.40;99.90
47779;DHT22;33538;48.432;11.350;2022-12-07T04:15:44;3.40;99.90
47779;DHT22;33538;48.432;11.350;2022-12-07T04:18:13;3.40;99.90
47779;DHT22;33538;48.432;11.350;2022-12-07T04:20:40;3.40;99.90
47779;DHT22;33538;48.432;11.350;2022-12-07T04:23:06;3.40;99.90
47779;DHT22;33538;48.432;11.350;2022-12-07T04:25:33;3.40;99.90
47779;DHT22;33538;48.432;11.350;2022-12-07T04:28:00;3.40;99.90
47779;DHT22;33538;48.432;11.350;2022-12-07T04:30:27;3.40;99.90
47779;DHT22;33538;48.432;11.350;2022-12-07T04:32:53;3.40;99.90
47779;DHT22;33538;48.432;11.350;2022-12-07T04:35:21;3.40;99.90
47779;DHT22;33538;48.432;11.350;2022-12-07T04:37:48;3.40;99.90
47779;DHT22;33538;48.432;11.350;2022-12-07T04:40:15;3.40;99.90
47779;DHT22;33538;48.432;11.350;2022-12-07T04:42:42;3.40;99.90
47779;DHT22;33538;48.432;11.350;2022-12-07T04:45:09;3.40;99.90
47779;DHT22;33538;48.432;11.350;2022-12-07T04:47:36;3.40;99.90
47779;DHT22;33538;48.432;11.350;2022-12-07T04:50:03;3.40;99.90
47779;DHT22;33538;48.432;11.350;2022-12-07T04:52:32;3.40;99.90
47779;DHT22;33538;48.432;11.350;2022-12-07T04:54:59;3.40;99.90
47779;DHT22;33538;48.432;11.350;2022-12-07T04:57:26;3.40;99.90
47779;DHT22;33538;48.432;11.350;2022-12-07T04:59:52;3.40;99.90
47779;DHT22;33538;48.432;11.350;2022-12-07T05:02:19;3.40;99.90
47779;DHT22;33538;48.432;11.350;2022-12-07T05:04:46;3.40;99.90
47779;DHT22;33538;48.432;11.350;2022-12-07T05:07:13;3.40;99.90
47779;DHT22;33538;48.432;11.350;2022-12-07T05:09:41;3.40;99.90
47779;DHT22;33538;48.432;11.350;2022-12-07T05:12:08;3.40;99.90
47779;DHT22;33538;48.432;11.350;2022-12-07T05:14:34;3.40;99.90
47779;DHT22;33538;48.432;11.350;2022-12-07T05:17:01;3.40;99.90
47779;DHT22;33538;48.432;11.350;2022-12-07T05:19:28;3.40;99.90
47779;DHT22;33538;48.432;11.350;2022-12-07T05:21:55;3.40;99.90
47779;DHT22;33538;48.432;11.350;2022-12-07T05:24:22;3.40;99.90
47779;DHT22;33538;48.432;11.350;2022-12-07T05:26:50;3.40;99.90
47779;DHT22;33538;48.432;11.350;2022-12-07T05:29:17;3.40;99.90
47779;DHT22;33538;48.432;11.350;2022-12-07T05:31:44;3.40;99.90
47779;DHT22;33538;48.432;11.350;2022-12-07T05:34:11;3.40;99.90
47779;DHT22;33538;48.432;11.350;2022-12-07T05:36:38;3.40;99.90
47779;DHT22;33538;48.432;11.350;2022-12-07T05:39:05;3.40;99.90
47779;DHT22;33538;48.432;11.350;2022-12-07T05:41:32;3.40;99.90
47779;DHT22;33538;48.432;11.350;2022-12-07T05:44:00;3.40;99.90
47779;DHT22;33538;48.432;11.350;2022-12-07T05:46:27;3.40;99.90
47779;DHT22;33538;48.432;11.350;2022-12-07T05:48:53;3.30;99.90
47779;DHT22;33538;48.432;11.350;2022-12-07T05:51:20;3.30;99.90
47779;DHT22;33538;48.432;11.350;2022-12-07T05:53:47;3.30;99.90
47779;DHT22;33538;48.432;11.350;2022-12-07T05:56:14;3.40;99.90
47779;DHT22;33538;48.432;11.350;2022-12-07T05:58:41;3.30;99.90
47779;DHT22;33538;48.432;11.350;2022-12-07T06:01:09;3.40;99.90
47779;DHT22;33538;48.432;11.350;2022-12-07T06:03:36;3.40;99.90
47779;DHT22;33538;48.432;11.350;2022-12-07T06:06:03;3.40;99.90
47779;DHT22;33538;48.432;11.350;2022-12-07T06:08:30;3.50;99.90
47779;DHT22;33538;48.432;11.350;2022-12-07T06:10:56;3.40;99.90
47779;DHT22;33538;48.432;11.350;2022-12-07T06:13:23;3.50;99.90
47779;DHT22;33538;48.432;11.350;2022-12-07T06:15:50;3.50;99.90
47779;DHT22;33538;48.432;11.350;2022-12-07T06:18:18;3.50;99.90
47779;DHT22;33538;48.432;11.350;2022-12-07T06:20:45;3.50;99.90
47779;DHT22;33538;48.432;11.350;2022-12-07T06:23:12;3.50;99.90
47779;DHT22;33538;48.432;11.350;2022-12-07T06:25:39;3.50;99.90
47779;DHT22;33538;48.432;11.350;2022-12-07T06:28:05;3.50;99.90
47779;DHT22;33538;48.432;11.350;2022-12-07T06:30:32;3.50;99.90
47779;DHT22;33538;48.432;11.350;2022-12-07T06:32:59;3.50;99.90
47779;DHT22;33538;48.432;11.350;2022-12-07T06:35:27;3.50;99.90
47779;DHT22;33538;48.432;11.350;2022-12-07T06:37:54;3.50;99.90
47779;DHT22;33538;48.432;11.350;2022-12-07T06:40:21;3.50;99.90
47779;DHT22;33538;48.432;11.350;2022-12-07T06:42:47;3.50;99.90
47779;DHT22;33538;48.432;11.350;2022-12-07T06:45:15;3.40;99.90
47779;DHT22;33538;48.432;11.350;2022-12-07T06:47:42;3.40;99.90
47779;DHT22;33538;48.432;11.350;2022-12-07T06:50:12;3.40;99.90
47779;DHT22;33538;48.432;11.350;2022-12-07T06:52:40;3.30;99.90
47779;DHT22;33538;48.432;11.350;2022-12-07T06:55:07;3.30;99.90
47779;DHT22;33538;48.432;11.350;2022-12-07T06:57:34;3.30;99.90
47779;DHT22;33538;48.432;11.350;2022-12-07T07:00:01;3.30;99.90
47779;DHT22;33538;48.432;11.350;2022-12-07T07:02:29;3.30;99.90
47779;DHT22;33538;48.432;11.350;2022-12-07T07:04:56;3.30;99.90
47779;DHT22;33538;48.432;11.350;2022-12-07T07:07:22;3.30;99.90
47779;DHT22;33538;48.432;11.350;2022-12-07T07:09:51;3.20;99.90
47779;DHT22;33538;48.432;11.350;2022-12-07T07:12:17;3.20;99.90
47779;DHT22;33538;48.432;11.350;2022-12-07T07:14:44;3.30;99.90
47779;DHT22;33538;48.432;11.350;2022-12-07T07:17:11;3.20;99.90
47779;DHT22;33538;48.432;11.350;2022-12-07T07:19:38;3.20;99.90
47779;DHT22;33538;48.432;11.350;2022-12-07T07:22:04;3.30;99.90
47779;DHT22;33538;48.432;11.350;2022-12-07T07:24:31;3.20;99.90
47779;DHT22;33538;48.432;11.350;2022-12-07T07:26:59;3.30;99.90
47779;DHT22;33538;48.432;11.350;2022-12-07T07:29:26;3.30;99.90
47779;DHT22;33538;48.432;11.350;2022-12-07T07:31:53;3.30;99.90
47779;DHT22;33538;48.432;11.350;2022-12-07T07:34:20;3.30;99.90
47779;DHT22;33538;48.432;11.350;2022-12-07T07:36:46;3.30;99.90
47779;DHT22;33538;48.432;11.350;2022-12-07T07:39:13;3.30;99.90
47779;DHT22;33538;48.432;11.350;2022-12-07T07:41:40;3.30;99.90
47779;DHT22;33538;48.432;11.350;2022-12-07T07:44:09;3.30;99.90
47779;DHT22;33538;48.432;11.350;2022-12-07T07:46:36;3.30;99.90
47779;DHT22;33538;48.432;11.350;2022-12-07T07:49:03;3.20;99.90
47779;DHT22;33538;48.432;11.350;2022-12-07T07:51:30;3.20;99.90
47779;DHT22;33538;48.432;11.350;2022-12-07T07:53:56;3.20;99.90
47779;DHT22;33538;48.432;11.350;2022-12-07T07:56:23;3.10;99.90
47779;DHT22;33538;48.432;11.350;2022-12-07T07:58:51;3.10;99.90
47779;DHT22;33538;48.432;11.350;2022-12-07T08:01:19;3.10;99.90
47779;DHT22;33538;48.432;11.350;2022-12-07T08:03:46;3.10;99.90
47779;DHT22;33538;48.432;11.350;2022-12-07T08:06:13;3.10;99.90
47779;DHT22;33538;48.432;11.350;2022-12-07T08:08:40;3.10;99.90
47779;DHT22;33538;48.432;11.350;2022-12-07T08:11:08;3.10;99.90
47779;DHT22;33538;48.432;11.350;2022-12-07T08:13:35;3.10;99.90
47779;DHT22;33538;48.432;11.350;2022-12-07T08:16:03;3.10;99.90
47779;DHT22;33538;48.432;11.350;2022-12-07T08:18:35;3.10;99.90
47779;DHT22;33538;48.432;11.350;2022-12-07T08:21:02;3.20;99.90
47779;DHT22;33538;48.432;11.350;2022-12-07T08:23:29;3.20;99.90
47779;DHT22;33538;48.432;11.350;2022-12-07T08:26:06;3.20;99.90
47779;DHT22;33538;48.432;11.350;2022-12-07T08:28:33;3.20;99.90
47779;DHT22;33538;48.432;11.350;2022-12-07T08:31:00;3.20;99.90
47779;DHT22;33538;48.432;11.350;2022-12-07T08:33:27;3.20;99.90
47779;DHT22;33538;48.432;11.350;2022-12-07T08:36:01;3.30;99.90
47779;DHT22;33538;48.432;11.350;2022-12-07T08:38:28;3.30;99.90
47779;DHT22;33538;48.432;11.350;2022-12-07T08:40:58;3.30;99.90
47779;DHT22;33538;48.432;11.350;2022-12-07T08:43:25;3.30;99.90
47779;DHT22;33538;48.432;11.350;2022-12-07T08:45:56;3.30;99.90
47779;DHT22;33538;48.432;11.350;2022-12-07T08:48:26;3.30;99.90
47779;DHT22;33538;48.432;11.350;2022-12-07T08:50:52;3.30;99.90
47779;DHT22;33538;48.432;11.350;2022-12-07T08:53:21;3.30;99.90
47779;DHT22;33538;48.432;11.350;2022-12-07T08:55:48;3.40;99.90
47779;DHT22;33538;48.432;11.350;2022-12-07T08:58:15;3.40;99.90
47779;DHT22;33538;48.432;11.350;2022-12-07T09:00:42;3.40;99.90
47779;DHT22;33538;48.432;11.350;2022-12-07T09:03:09;3.40;99.90
47779;DHT22;33538;48.432;11.350;2022-12-07T09:05:36;3.30;99.90
47779;DHT22;33538;48.432;11.350;2022-12-07T09:08:03;3.30;99.90
47779;DHT22;33538;48.432;11.350;2022-12-07T09:10:31;3.40;99.90
47779;DHT22;33538;48.432;11.350;2022-12-07T09:12:58;3.40;99.90
47779;DHT22;33538;48.432;11.350;2022-12-07T09:15:25;3.40;99.90
47779;DHT22;33538;48.432;11.350;2022-12-07T09:17:51;3.50;99.90
47779;DHT22;33538;48.432;11.350;2022-12-07T09:20:18;3.50;99.90
47779;DHT22;33538;48.432;11.350;2022-12-07T09:22:53;3.50;99.90
47779;DHT22;33538;48.432;11.350;2022-12-07T09:25:19;3.60;99.90
47779;DHT22;33538;48.432;11.350;2022-12-07T09:27:48;3.60;99.90
47779;DHT22;33538;48.432;11.350;2022-12-07T09:30:14;3.70;99.90
47779;DHT22;33538;48.432;11.350;2022-12-07T09:32:41;3.70;99.90
47779;DHT22;33538;48.432;11.350;2022-12-07T09:35:08;3.70;99.90
47779;DHT22;33538;48.432;11.350;2022-12-07T09:37:35;3.80;99.90
47779;DHT22;33538;48.432;11.350;2022-12-07T09:40:02;3.80;99.90
47779;DHT22;33538;48.432;11.350;2022-12-07T09:42:34;3.80;99.90
47779;DHT22;33538;48.432;11.350;2022-12-07T09:45:05;3.90;99.90
47779;DHT22;33538;48.432;11.350;2022-12-07T09:47:33;3.90;99.90
47779;DHT22;33538;48.432;11.350;2022-12-07T09:50:03;3.90;99.90
47779;DHT22;33538;48.432;11.350;2022-12-07T09:52:31;3.90;99.90
47779;DHT22;33538;48.432;11.350;2022-12-07T09:55:10;3.90;99.90
47779;DHT22;33538;48.432;11.350;2022-12-07T09:57:39;4.00;99.90
47779;DHT22;33538;48.432;11.350;2022-12-07T10:00:13;4.00;99.90
47779;DHT22;33538;48.432;11.350;2022-12-07T10:02:41;4.00;99.90
47779;DHT22;33538;48.432;11.350;2022-12-07T10:05:12;4.00;99.90
47779;DHT22;33538;48.432;11.350;2022-12-07T10:07:47;4.10;99.90
47779;DHT22;33538;48.432;11.350;2022-12-07T10:10:19;4.00;99.90
47779;DHT22;33538;48.432;11.350;2022-12-07T10:12:55;4.10;99.90
47779;DHT22;33538;48.432;11.350;2022-12-07T10:15:23;4.10;99.90
47779;DHT22;33538;48.432;11.350;2022-12-07T10:17:52;4.10;99.90
47779;DHT22;33538;48.432;11.350;2022-12-07T10:20:21;4.10;99.90
47779;DHT22;33538;48.432;11.350;2022-12-07T10:22:57;4.10;99.90
47779;DHT22;33538;48.432;11.350;2022-12-07T10:25:27;4.10;99.90
47779;DHT22;33538;48.432;11.350;2022-12-07T10:28:12;4.10;99.90
47779;DHT22;33538;48.432;11.350;2022-12-07T10:30:52;4.10;99.90
47779;DHT22;33538;48.432;11.350;2022-12-07T10:33:31;4.10;99.90
47779;DHT22;33538;48.432;11.350;2022-12-07T10:35:58;4.10;99.90
47779;DHT22;33538;48.432;11.350;2022-12-07T10:38:26;4.10;99.90
47779;DHT22;33538;48.432;11.350;2022-12-07T10:41:03;4.10;99.90
47779;DHT22;33538;48.432;11.350;2022-12-07T10:43:30;4.10;99.90
47779;DHT22;33538;48.432;11.350;2022-12-07T10:46:10;4.10;99.90
47779;DHT22;33538;48.432;11.350;2022-12-07T10:48:49;4.10;99.90
47779;DHT22;33538;48.432;11.350;2022-12-07T10:51:22;4.10;99.90
47779;DHT22;33538;48.432;11.350;2022-12-07T10:53:59;4.10;99.90
47779;DHT22;33538;48.432;11.350;2022-12-07T10:56:46;4.10;99.90
47779;DHT22;33538;48.432;11.350;2022-12-07T10:59:39;4.10;99.90
47779;DHT22;33538;48.432;11.350;2022-12-07T11:02:32;4.10;99.90
47779;DHT22;33538;48.432;11.350;2022-12-07T11:05:14;4.10;99.90
47779;DHT22;33538;48.432;11.350;2022-12-07T11:07:49;4.10;99.90
47779;DHT22;33538;48.432;11.350;2022-12-07T11:10:26;4.20;99.90
47779;DHT22;33538;48.432;11.350;2022-12-07T11:13:16;4.10;99.90
47779;DHT22;33538;48.432;11.350;2022-12-07T11:19:05;4.10;99.90
47779;DHT22;33538;48.432;11.350;2022-12-07T11:21:41;4.10;99.90
47779;DHT22;33538;48.432;11.350;2022-12-07T11:24:14;4.10;99.90
47779;DHT22;33538;48.432;11.350;2022-12-07T11:26:51;4.20;99.90
47779;DHT22;33538;48.432;11.350;2022-12-07T11:29:40;4.10;99.90
47779;DHT22;33538;48.432;11.350;2022-12-07T11:32:17;4.20;99.90
47779;DHT22;33538;48.432;11.350;2022-12-07T11:34:56;4.20;99.90
47779;DHT22;33538;48.432;11.350;2022-12-07T11:37:31;4.20;99.90
47779;DHT22;33538;48.432;11.350;2022-12-07T11:40:14;4.20;99.90
47779;DHT22;33538;48.432;11.350;2022-12-07T11:42:46;4.20;99.90
47779;DHT22;33538;48.432;11.350;2022-12-07T11:45:17;4.20;99.90
47779;DHT22;33538;48.432;11.350;2022-12-07T11:47:47;4.20;99.90
47779;DHT22;33538;48.432;11.350;2022-12-07T11:50:25;4.20;99.90
47779;DHT22;33538;48.432;11.350;2022-12-07T11:52:56;4.20;99.90
47779;DHT22;33538;48.432;11.350;2022-12-07T11:55:28;4.20;99.90
47779;DHT22;33538;48.432;11.350;2022-12-07T11:58:03;4.20;99.90
47779;DHT22;33538;48.432;11.350;2022-12-07T12:00:30;4.20;99.90
47779;DHT22;33538;48.432;11.350;2022-12-07T12:03:01;4.20;99.90
47779;DHT22;33538;48.432;11.350;2022-12-07T12:05:31;4.20;99.90
47779;DHT22;33538;48.432;11.350;2022-12-07T12:08:04;4.20;99.90
47779;DHT22;33538;48.432;11.350;2022-12-07T12:11:02;4.20;99.90
47779;DHT22;33538;48.432;11.350;2022-12-07T12:13:52;4.20;99.90
47779;DHT22;33538;48.432;11.350;2022-12-07T12:17:00;4.20;99.90
47779;DHT22;33538;48.432;11.350;2022-12-07T12:19:33;4.20;99.90
47779;DHT22;33538;48.432;11.350;2022-12-07T12:22:09;4.20;99.90
47779;DHT22;33538;48.432;11.350;2022-12-07T12:24:37;4.20;99.90
47779;DHT22;33538;48.432;11.350;2022-12-07T12:27:08;4.20;99.90
47779;DHT22;33538;48.432;11.350;2022-12-07T12:29:38;4.20;99.90
47779;DHT22;33538;48.432;11.350;2022-12-07T12:32:11;4.20;99.90
47779;DHT22;33538;48.432;11.350;2022-12-07T12:34:42;4.20;99.90
47779;DHT22;33538;48.432;11.350;2022-12-07T12:37:42;4.20;99.90
47779;DHT22;33538;48.432;11.350;2022-12-07T12:40:38;4.20;99.90
47779;DHT22;33538;48.432;11.350;2022-12-07T12:43:48;4.20;99.90
47779;DHT22;33538;48.432;11.350;2022-12-07T12:46:47;4.20;99.90
47779;DHT22;33538;48.432;11.350;2022-12-07T12:49:42;4.20;99.90
47779;DHT22;33538;48.432;11.350;2022-12-07T12:52:49;4.20;99.90
47779;DHT22;33538;48.432;11.350;2022-12-07T12:58:43;4.20;99.90
47779;DHT22;33538;48.432;11.350;2022-12-07T13:04:18;4.20;99.90
47779;DHT22;33538;48.432;11.350;2022-12-07T13:06:48;4.20;99.90
47779;DHT22;33538;48.432;11.350;2022-12-07T13:09:21;4.20;99.90
47779;DHT22;33538;48.432;11.350;2022-12-07T13:11:50;4.20;99.90
47779;DHT22;33538;48.432;11.350;2022-12-07T13:14:41;4.20;99.90
47779;DHT22;33538;48.432;11.350;2022-12-07T13:17:09;4.30;99.90
47779;DHT22;33538;48.432;11.350;2022-12-07T13:19:57;4.20;99.90
47779;DHT22;33538;48.432;11.350;2022-12-07T13:22:47;4.20;99.90
47779;DHT22;33538;48.432;11.350;2022-12-07T13:28:10;4.20;99.90
47779;DHT22;33538;48.432;11.350;2022-12-07T13:30:46;4.20;99.90
47779;DHT22;33538;48.432;11.350;2022-12-07T13:33:14;4.20;99.90
47779;DHT22;33538;48.432;11.350;2022-12-07T13:35:41;4.20;99.90
47779;DHT22;33538;48.432;11.350;2022-12-07T13:38:22;4.20;99.90
47779;DHT22;33538;48.432;11.350;2022-12-07T13:41:13;4.20;99.90
47779;DHT22;33538;48.432;11.350;2022-12-07T13:43:46;4.20;99.90
47779;DHT22;33538;48.432;11.350;2022-12-07T13:46:14;4.20;99.90
47779;DHT22;33538;48.432;11.350;2022-12-07T13:48:44;4.20;99.90
47779;DHT22;33538;48.432;11.350;2022-12-07T13:51:18;4.20;99.90
47779;DHT22;33538;48.432;11.350;2022-12-07T13:53:49;4.20;99.90
47779;DHT22;33538;48.432;11.350;2022-12-07T13:56:17;4.20;99.90
47779;DHT22;33538;48.432;11.350;2022-12-07T13:58:44;4.20;99.90
47779;DHT22;33538;48.432;11.350;2022-12-07T14:01:11;4.30;99.90
47779;DHT22;33538;48.432;11.350;2022-12-07T14:03:38;4.20;99.90
47779;DHT22;33538;48.432;11.350;2022-12-07T14:06:13;4.20;99.90
47779;DHT22;33538;48.432;11.350;2022-12-07T14:08:40;4.20;99.90
47779;DHT22;33538;48.432;11.350;2022-12-07T14:11:10;4.20;99.90
47779;DHT22;33538;48.432;11.350;2022-12-07T14:13:45;4.30;99.90
47779;DHT22;33538;48.432;11.350;2022-12-07T14:16:24;4.20;99.90
47779;DHT22;33538;48.432;11.350;2022-12-07T14:18:52;4.20;99.90
47779;DHT22;33538;48.432;11.350;2022-12-07T14:21:20;4.20;99.90
47779;DHT22;33538;48.432;11.350;2022-12-07T14:24:12;4.20;99.90
47779;DHT22;33538;48.432;11.350;2022-12-07T14:26:41;4.20;99.90
47779;DHT22;33538;48.432;11.350;2022-12-07T14:29:31;4.20;99.90
47779;DHT22;33538;48.432;11.350;2022-12-07T14:32:13;4.20;99.90
47779;DHT22;33538;48.432;11.350;2022-12-07T14:34:56;4.20;99.90
47779;DHT22;33538;48.432;11.350;2022-12-07T14:37:23;4.20;99.90
47779;DHT22;33538;48.432;11.350;2022-12-07T14:39:50;4.10;99.90
47779;DHT22;33538;48.432;11.350;2022-12-07T14:42:17;4.20;99.90
47779;DHT22;33538;48.432;11.350;2022-12-07T14:44:45;4.10;99.90
47779;DHT22;33538;48.432;11.350;2022-12-07T14:47:12;4.10;99.90
47779;DHT22;33538;48.432;11.350;2022-12-07T14:49:59;4.10;99.90
47779;DHT22;33538;48.432;11.350;2022-12-07T14:52:32;4.10;99.90
47779;DHT22;33538;48.432;11.350;2022-12-07T14:55:23;4.10;99.90
47779;DHT22;33538;48.432;11.350;2022-12-07T14:57:50;4.10;99.90
47779;DHT22;33538;48.432;11.350;2022-12-07T15:00:20;4.10;99.90
47779;DHT22;33538;48.432;11.350;2022-12-07T15:02:47;4.10;99.90
47779;DHT22;33538;48.432;11.350;2022-12-07T15:05:15;4.10;99.90
47779;DHT22;33538;48.432;11.350;2022-12-07T15:07:43;4.10;99.90
47779;DHT22;33538;48.432;11.350;2022-12-07T15:10:16;4.00;99.90
47779;DHT22;33538;48.432;11.350;2022-12-07T15:12:49;4.10;99.90
47779;DHT22;33538;48.432;11.350;2022-12-07T15:15:16;4.00;99.90
47779;DHT22;33538;48.432;11.350;2022-12-07T15:17:45;4.10;99.90
47779;DHT22;33538;48.432;11.350;2022-12-07T15:20:13;4.10;99.90
47779;DHT22;33538;48.432;11.350;2022-12-07T15:22:40;4.10;99.90
47779;DHT22;33538;48.432;11.350;2022-12-07T15:25:08;4.00;99.90
47779;DHT22;33538;48.432;11.350;2022-12-07T15:27:38;4.00;99.90
47779;DHT22;33538;48.432;11.350;2022-12-07T15:30:06;4.00;99.90
47779;DHT22;33538;48.432;11.350;2022-12-07T15:32:33;4.00;99.90
47779;DHT22;33538;48.432;11.350;2022-12-07T15:35:01;4.00;99.90
47779;DHT22;33538;48.432;11.350;2022-12-07T15:37:29;4.00;99.90
47779;DHT22;33538;48.432;11.350;2022-12-07T15:39:56;4.00;99.90
47779;DHT22;33538;48.432;11.350;2022-12-07T15:42:22;4.00;99.90
47779;DHT22;33538;48.432;11.350;2022-12-07T15:44:49;4.00;99.90
47779;DHT22;33538;48.432;11.350;2022-12-07T15:47:16;3.90;99.90
47779;DHT22;33538;48.432;11.350;2022-12-07T15:49:43;3.90;99.90
47779;DHT22;33538;48.432;11.350;2022-12-07T15:52:11;3.90;99.90
47779;DHT22;33538;48.432;11.350;2022-12-07T15:54:38;3.90;99.90
47779;DHT22;33538;48.432;11.350;2022-12-07T15:57:04;3.90;99.90
47779;DHT22;33538;48.432;11.350;2022-12-07T15:59:31;3.90;99.90
47779;DHT22;33538;48.432;11.350;2022-12-07T16:01:58;3.90;99.90
47779;DHT22;33538;48.432;11.350;2022-12-07T16:04:27;3.80;99.90
47779;DHT22;33538;48.432;11.350;2022-12-07T16:06:54;3.80;99.90